sensor_id;sensor_type;location;lat;lon;timestamp;P1;durP1;ratioP1;P2;durP2;ratioP2
79149;SDS011;68563;45.644;13.782;2023-04-28T00:00:25;2.60;;;0.90;;
79149;SDS011;68563;45.644;13.782;2023-04-28T00:02:51;1.65;;;0.98;;
79149;SDS011;68563;45.644;13.782;2023-04-28T00:05:16;1.40;;;0.80;;
79149;SDS011;68563;45.644;13.782;2023-04-28T00:07:42;0.90;;;0.80;;
79149;SDS011;68563;45.644;13.782;2023-04-28T00:10:07;0.95;;;0.88;;
79149;SDS011;68563;45.644;13.782;2023-04-28T00:12:33;1.02;;;0.82;;
79149;SDS011;68563;45.644;13.782;2023-04-28T00:14:59;1.77;;;0.52;;
79149;SDS011;68563;45.644;13.782;2023-04-28T00:17:24;1.85;;;0.80;;
79149;SDS011;68563;45.644;13.782;2023-04-28T00:19:50;1.55;;;0.90;;
79149;SDS011;68563;45.644;13.782;2023-04-28T00:22:16;0.75;;;0.60;;
79149;SDS011;68563;45.644;13.782;2023-04-28T00:24:42;1.00;;;0.80;;
79149;SDS011;68563;45.644;13.782;2023-04-28T00:27:08;0.70;;;0.68;;
79149;SDS011;68563;45.644;13.782;2023-04-28T00:29:34;1.45;;;0.80;;
79149;SDS011;68563;45.644;13.782;2023-04-28T00:32:00;1.50;;;0.80;;
79149;SDS011;68563;45.644;13.782;2023-04-28T00:34:26;0.98;;;0.82;;
79149;SDS011;68563;45.644;13.782;2023-04-28T00:36:52;0.80;;;0.70;;
79149;SDS011;68563;45.644;13.782;2023-04-28T00:39:17;1.42;;;0.80;;
79149;SDS011;68563;45.644;13.782;2023-04-28T00:41:42;1.00;;;0.88;;
79149;SDS011;68563;45.644;13.782;2023-04-28T00:44:08;1.05;;;0.80;;
79149;SDS011;68563;45.644;13.782;2023-04-28T00:46:33;1.05;;;0.60;;
79149;SDS011;68563;45.644;13.782;2023-04-28T00:48:59;0.90;;;0.70;;
79149;SDS011;68563;45.644;13.782;2023-04-28T00:51:24;1.45;;;0.80;;
79149;SDS011;68563;45.644;13.782;2023-04-28T00:53:51;1.10;;;0.90;;
79149;SDS011;68563;45.644;13.782;2023-04-28T00:56:17;1.05;;;0.80;;
79149;SDS011;68563;45.644;13.782;2023-04-28T00:58:43;0.82;;;0.65;;
79149;SDS011;68563;45.644;13.782;2023-04-28T01:01:09;1.17;;;0.80;;
79149;SDS011;68563;45.644;13.782;2023-04-28T01:03:36;1.85;;;0.60;;
79149;SDS011;68563;45.644;13.782;2023-04-28T01:06:04;0.60;;;0.60;;
79149;SDS011;68563;45.644;13.782;2023-04-28T01:08:30;2.25;;;0.90;;
79149;SDS011;68563;45.644;13.782;2023-04-28T01:10:56;2.15;;;0.70;;
79149;SDS011;68563;45.644;13.782;2023-04-28T01:13:22;1.13;;;0.82;;
79149;SDS011;68563;45.644;13.782;2023-04-28T01:15:48;1.00;;;0.75;;
79149;SDS011;68563;45.644;13.782;2023-04-28T01:18:13;0.73;;;0.60;;
79149;SDS011;68563;45.644;13.782;2023-04-28T01:20:40;1.20;;;0.70;;
79149;SDS011;68563;45.644;13.782;2023-04-28T01:23:12;0.90;;;0.70;;
79149;SDS011;68563;45.644;13.782;2023-04-28T01:25:39;0.60;;;0.57;;
79149;SDS011;68563;45.644;13.782;2023-04-28T01:28:05;3.42;;;0.60;;
79149;SDS011;68563;45.644;13.782;2023-04-28T01:30:30;1.00;;;0.75;;
79149;SDS011;68563;45.644;13.782;2023-04-28T01:32:56;1.40;;;0.90;;
79149;SDS011;68563;45.644;13.782;2023-04-28T01:35:21;0.90;;;0.65;;
79149;SDS011;68563;45.644;13.782;2023-04-28T01:37:46;1.40;;;0.60;;
79149;SDS011;68563;45.644;13.782;2023-04-28T01:40:12;0.90;;;0.73;;
79149;SDS011;68563;45.644;13.782;2023-04-28T01:42:37;0.75;;;0.50;;
79149;SDS011;68563;45.644;13.782;2023-04-28T01:45:03;0.90;;;0.80;;
79149;SDS011;68563;45.644;13.782;2023-04-28T01:47:29;1.60;;;0.90;;
79149;SDS011;68563;45.644;13.782;2023-04-28T01:49:55;1.00;;;0.90;;
79149;SDS011;68563;45.644;13.782;2023-04-28T01:52:21;2.88;;;0.70;;
79149;SDS011;68563;45.644;13.782;2023-04-28T01:54:48;0.90;;;0.70;;
79149;SDS011;68563;45.644;13.782;2023-04-28T01:57:14;1.15;;;0.80;;
79149;SDS011;68563;45.644;13.782;2023-04-28T01:59:39;0.73;;;0.60;;
79149;SDS011;68563;45.644;13.782;2023-04-28T02:02:05;1.40;;;0.90;;
79149;SDS011;68563;45.644;13.782;2023-04-28T02:04:30;2.50;;;1.02;;
79149;SDS011;68563;45.644;13.782;2023-04-28T02:06:56;1.10;;;0.70;;
79149;SDS011;68563;45.644;13.782;2023-04-28T02:09:21;1.15;;;0.98;;
79149;SDS011;68563;45.644;13.782;2023-04-28T02:11:47;1.75;;;0.93;;
79149;SDS011;68563;45.644;13.782;2023-04-28T02:14:12;1.48;;;0.80;;
79149;SDS011;68563;45.644;13.782;2023-04-28T02:16:37;2.55;;;0.88;;
79149;SDS011;68563;45.644;13.782;2023-04-28T02:19:03;0.88;;;0.70;;
79149;SDS011;68563;45.644;13.782;2023-04-28T02:21:28;1.55;;;1.05;;
79149;SDS011;68563;45.644;13.782;2023-04-28T02:23:54;2.08;;;0.90;;
79149;SDS011;68563;45.644;13.782;2023-04-28T02:26:20;1.20;;;0.85;;
79149;SDS011;68563;45.644;13.782;2023-04-28T02:28:46;3.50;;;0.70;;
79149;SDS011;68563;45.644;13.782;2023-04-28T02:31:13;0.70;;;0.70;;
79149;SDS011;68563;45.644;13.782;2023-04-28T02:33:38;0.80;;;0.80;;
79149;SDS011;68563;45.644;13.782;2023-04-28T02:36:06;0.93;;;0.70;;
79149;SDS011;68563;45.644;13.782;2023-04-28T02:38:32;1.83;;;0.90;;
79149;SDS011;68563;45.644;13.782;2023-04-28T02:40:58;1.10;;;0.60;;
79149;SDS011;68563;45.644;13.782;2023-04-28T02:43:25;1.85;;;0.85;;
79149;SDS011;68563;45.644;13.782;2023-04-28T02:45:51;1.40;;;0.80;;
79149;SDS011;68563;45.644;13.782;2023-04-28T02:48:17;0.90;;;0.80;;
79149;SDS011;68563;45.644;13.782;2023-04-28T02:50:42;1.23;;;0.90;;
79149;SDS011;68563;45.644;13.782;2023-04-28T02:53:08;1.05;;;0.85;;
79149;SDS011;68563;45.644;13.782;2023-04-28T02:55:33;1.58;;;0.77;;
79149;SDS011;68563;45.644;13.782;2023-04-28T02:57:58;1.42;;;0.93;;
79149;SDS011;68563;45.644;13.782;2023-04-28T03:00:24;1.77;;;0.80;;
79149;SDS011;68563;45.644;13.782;2023-04-28T03:02:49;2.97;;;1.02;;
79149;SDS011;68563;45.644;13.782;2023-04-28T03:05:14;1.45;;;0.90;;
79149;SDS011;68563;45.644;13.782;2023-04-28T03:07:40;1.30;;;0.80;;
79149;SDS011;68563;45.644;13.782;2023-04-28T03:10:05;1.52;;;0.93;;
79149;SDS011;68563;45.644;13.782;2023-04-28T03:12:31;2.55;;;0.73;;
79149;SDS011;68563;45.644;13.782;2023-04-28T03:14:56;1.23;;;0.82;;
79149;SDS011;68563;45.644;13.782;2023-04-28T03:17:22;0.75;;;0.70;;
79149;SDS011;68563;45.644;13.782;2023-04-28T03:19:47;1.00;;;0.80;;
79149;SDS011;68563;45.644;13.782;2023-04-28T03:22:13;0.93;;;0.80;;
79149;SDS011;68563;45.644;13.782;2023-04-28T03:24:38;1.38;;;0.98;;
79149;SDS011;68563;45.644;13.782;2023-04-28T03:27:03;2.13;;;1.05;;
79149;SDS011;68563;45.644;13.782;2023-04-28T03:29:29;1.58;;;1.10;;
79149;SDS011;68563;45.644;13.782;2023-04-28T03:31:55;1.45;;;0.95;;
79149;SDS011;68563;45.644;13.782;2023-04-28T03:34:21;1.38;;;0.80;;
79149;SDS011;68563;45.644;13.782;2023-04-28T03:36:46;1.30;;;0.90;;
79149;SDS011;68563;45.644;13.782;2023-04-28T03:39:12;1.38;;;1.08;;
79149;SDS011;68563;45.644;13.782;2023-04-28T03:41:37;1.48;;;0.80;;
79149;SDS011;68563;45.644;13.782;2023-04-28T03:44:02;1.83;;;0.90;;
79149;SDS011;68563;45.644;13.782;2023-04-28T03:46:28;1.20;;;0.90;;
79149;SDS011;68563;45.644;13.782;2023-04-28T03:48:53;1.50;;;0.98;;
79149;SDS011;68563;45.644;13.782;2023-04-28T03:51:20;2.53;;;1.02;;
79149;SDS011;68563;45.644;13.782;2023-04-28T03:53:46;2.30;;;1.75;;
79149;SDS011;68563;45.644;13.782;2023-04-28T03:56:11;1.77;;;0.80;;
79149;SDS011;68563;45.644;13.782;2023-04-28T03:58:37;0.80;;;0.80;;
79149;SDS011;68563;45.644;13.782;2023-04-28T04:01:02;1.80;;;0.88;;
79149;SDS011;68563;45.644;13.782;2023-04-28T04:03:29;1.02;;;0.80;;
79149;SDS011;68563;45.644;13.782;2023-04-28T04:05:54;1.10;;;0.82;;
79149;SDS011;68563;45.644;13.782;2023-04-28T04:08:20;2.05;;;1.08;;
79149;SDS011;68563;45.644;13.782;2023-04-28T04:10:45;1.80;;;1.10;;
79149;SDS011;68563;45.644;13.782;2023-04-28T04:13:11;1.30;;;1.10;;
79149;SDS011;68563;45.644;13.782;2023-04-28T04:15:36;2.28;;;1.00;;
79149;SDS011;68563;45.644;13.782;2023-04-28T04:18:02;2.60;;;0.80;;
79149;SDS011;68563;45.644;13.782;2023-04-28T04:20:27;4.32;;;0.98;;
79149;SDS011;68563;45.644;13.782;2023-04-28T04:22:52;1.23;;;1.00;;
79149;SDS011;68563;45.644;13.782;2023-04-28T04:25:18;1.90;;;1.17;;
79149;SDS011;68563;45.644;13.782;2023-04-28T04:27:43;1.63;;;1.08;;
79149;SDS011;68563;45.644;13.782;2023-04-28T04:30:09;1.58;;;0.95;;
79149;SDS011;68563;45.644;13.782;2023-04-28T04:32:34;1.13;;;1.00;;
79149;SDS011;68563;45.644;13.782;2023-04-28T04:35:00;2.75;;;1.38;;
79149;SDS011;68563;45.644;13.782;2023-04-28T04:37:25;3.28;;;1.35;;
79149;SDS011;68563;45.644;13.782;2023-04-28T04:39:51;2.75;;;1.30;;
79149;SDS011;68563;45.644;13.782;2023-04-28T04:42:16;2.58;;;1.80;;
79149;SDS011;68563;45.644;13.782;2023-04-28T04:44:42;3.28;;;2.00;;
79149;SDS011;68563;45.644;13.782;2023-04-28T04:47:07;3.45;;;1.83;;
79149;SDS011;68563;45.644;13.782;2023-04-28T04:49:32;3.35;;;1.80;;
79149;SDS011;68563;45.644;13.782;2023-04-28T04:51:58;4.18;;;1.80;;
79149;SDS011;68563;45.644;13.782;2023-04-28T04:54:23;1.95;;;1.55;;
79149;SDS011;68563;45.644;13.782;2023-04-28T04:56:49;4.35;;;2.05;;
79149;SDS011;68563;45.644;13.782;2023-04-28T04:59:15;5.43;;;2.10;;
79149;SDS011;68563;45.644;13.782;2023-04-28T05:01:41;3.63;;;2.00;;
79149;SDS011;68563;45.644;13.782;2023-04-28T05:04:06;3.03;;;2.00;;
79149;SDS011;68563;45.644;13.782;2023-04-28T05:06:32;6.50;;;1.90;;
79149;SDS011;68563;45.644;13.782;2023-04-28T05:08:57;4.00;;;1.90;;
79149;SDS011;68563;45.644;13.782;2023-04-28T05:11:23;3.58;;;1.70;;
79149;SDS011;68563;45.644;13.782;2023-04-28T05:13:48;6.32;;;1.63;;
79149;SDS011;68563;45.644;13.782;2023-04-28T05:16:14;4.55;;;1.70;;
79149;SDS011;68563;45.644;13.782;2023-04-28T05:18:40;3.78;;;2.00;;
79149;SDS011;68563;45.644;13.782;2023-04-28T05:21:05;3.03;;;1.60;;
79149;SDS011;68563;45.644;13.782;2023-04-28T05:23:31;5.55;;;1.70;;
79149;SDS011;68563;45.644;13.782;2023-04-28T05:25:56;3.60;;;1.67;;
79149;SDS011;68563;45.644;13.782;2023-04-28T05:28:21;4.13;;;1.48;;
79149;SDS011;68563;45.644;13.782;2023-04-28T05:30:47;6.13;;;2.00;;
79149;SDS011;68563;45.644;13.782;2023-04-28T05:33:12;2.30;;;1.67;;
79149;SDS011;68563;45.644;13.782;2023-04-28T05:35:38;4.45;;;1.65;;
79149;SDS011;68563;45.644;13.782;2023-04-28T05:38:03;4.38;;;2.10;;
79149;SDS011;68563;45.644;13.782;2023-04-28T05:40:30;4.07;;;1.70;;
79149;SDS011;68563;45.644;13.782;2023-04-28T05:42:56;6.85;;;2.10;;
79149;SDS011;68563;45.644;13.782;2023-04-28T05:45:21;5.32;;;1.58;;
79149;SDS011;68563;45.644;13.782;2023-04-28T05:47:47;6.15;;;2.17;;
79149;SDS011;68563;45.644;13.782;2023-04-28T05:50:12;3.85;;;1.75;;
79149;SDS011;68563;45.644;13.782;2023-04-28T05:52:37;3.22;;;2.00;;
79149;SDS011;68563;45.644;13.782;2023-04-28T05:55:03;3.95;;;1.80;;
79149;SDS011;68563;45.644;13.782;2023-04-28T05:57:29;2.55;;;1.70;;
79149;SDS011;68563;45.644;13.782;2023-04-28T05:59:54;5.03;;;2.00;;
79149;SDS011;68563;45.644;13.782;2023-04-28T06:02:19;3.67;;;2.00;;
79149;SDS011;68563;45.644;13.782;2023-04-28T06:04:45;5.70;;;2.08;;
79149;SDS011;68563;45.644;13.782;2023-04-28T06:07:10;5.15;;;1.92;;
79149;SDS011;68563;45.644;13.782;2023-04-28T06:09:36;4.90;;;1.90;;
79149;SDS011;68563;45.644;13.782;2023-04-28T06:12:01;6.63;;;2.65;;
79149;SDS011;68563;45.644;13.782;2023-04-28T06:14:27;5.95;;;2.63;;
79149;SDS011;68563;45.644;13.782;2023-04-28T06:16:53;4.90;;;2.65;;
79149;SDS011;68563;45.644;13.782;2023-04-28T06:19:19;6.15;;;3.08;;
79149;SDS011;68563;45.644;13.782;2023-04-28T06:21:44;4.38;;;2.72;;
79149;SDS011;68563;45.644;13.782;2023-04-28T06:24:11;3.55;;;2.40;;
79149;SDS011;68563;45.644;13.782;2023-04-28T06:26:36;3.65;;;2.53;;
79149;SDS011;68563;45.644;13.782;2023-04-28T06:29:02;7.90;;;2.53;;
79149;SDS011;68563;45.644;13.782;2023-04-28T06:31:27;4.00;;;2.80;;
79149;SDS011;68563;45.644;13.782;2023-04-28T06:33:53;5.30;;;2.70;;
79149;SDS011;68563;45.644;13.782;2023-04-28T06:36:18;6.93;;;2.83;;
79149;SDS011;68563;45.644;13.782;2023-04-28T06:38:44;5.80;;;2.17;;
79149;SDS011;68563;45.644;13.782;2023-04-28T06:41:10;4.70;;;2.03;;
79149;SDS011;68563;45.644;13.782;2023-04-28T06:43:35;8.35;;;2.17;;
79149;SDS011;68563;45.644;13.782;2023-04-28T06:46:02;5.50;;;2.42;;
79149;SDS011;68563;45.644;13.782;2023-04-28T06:48:27;5.00;;;2.58;;
79149;SDS011;68563;45.644;13.782;2023-04-28T06:50:53;5.85;;;1.77;;
79149;SDS011;68563;45.644;13.782;2023-04-28T06:53:18;8.55;;;2.20;;
79149;SDS011;68563;45.644;13.782;2023-04-28T06:55:44;3.75;;;2.33;;
79149;SDS011;68563;45.644;13.782;2023-04-28T06:58:09;8.93;;;2.53;;
79149;SDS011;68563;45.644;13.782;2023-04-28T07:00:36;6.13;;;2.65;;
79149;SDS011;68563;45.644;13.782;2023-04-28T07:03:02;5.82;;;1.88;;
79149;SDS011;68563;45.644;13.782;2023-04-28T07:05:28;5.95;;;2.20;;
79149;SDS011;68563;45.644;13.782;2023-04-28T07:07:53;6.68;;;2.00;;
79149;SDS011;68563;45.644;13.782;2023-04-28T07:10:19;8.82;;;2.38;;
79149;SDS011;68563;45.644;13.782;2023-04-28T07:12:44;4.50;;;2.17;;
79149;SDS011;68563;45.644;13.782;2023-04-28T07:15:10;3.92;;;2.47;;
79149;SDS011;68563;45.644;13.782;2023-04-28T07:17:36;5.03;;;2.58;;
79149;SDS011;68563;45.644;13.782;2023-04-28T07:20:02;6.53;;;2.47;;
79149;SDS011;68563;45.644;13.782;2023-04-28T07:22:28;3.08;;;2.33;;
79149;SDS011;68563;45.644;13.782;2023-04-28T07:24:54;7.60;;;2.17;;
79149;SDS011;68563;45.644;13.782;2023-04-28T07:27:19;6.53;;;2.30;;
79149;SDS011;68563;45.644;13.782;2023-04-28T07:29:44;3.22;;;2.05;;
79149;SDS011;68563;45.644;13.782;2023-04-28T07:32:10;7.40;;;2.65;;
79149;SDS011;68563;45.644;13.782;2023-04-28T07:34:35;5.88;;;2.05;;
79149;SDS011;68563;45.644;13.782;2023-04-28T07:37:01;3.75;;;1.95;;
79149;SDS011;68563;45.644;13.782;2023-04-28T07:39:28;4.07;;;2.10;;
79149;SDS011;68563;45.644;13.782;2023-04-28T07:41:55;6.15;;;1.98;;
79149;SDS011;68563;45.644;13.782;2023-04-28T07:44:22;3.42;;;2.20;;
79149;SDS011;68563;45.644;13.782;2023-04-28T07:46:47;4.63;;;1.80;;
79149;SDS011;68563;45.644;13.782;2023-04-28T07:49:13;3.00;;;1.90;;
79149;SDS011;68563;45.644;13.782;2023-04-28T07:51:38;4.72;;;1.80;;
79149;SDS011;68563;45.644;13.782;2023-04-28T07:54:04;4.43;;;2.25;;
79149;SDS011;68563;45.644;13.782;2023-04-28T07:56:29;4.25;;;2.08;;
79149;SDS011;68563;45.644;13.782;2023-04-28T07:58:55;4.13;;;2.40;;
79149;SDS011;68563;45.644;13.782;2023-04-28T08:01:21;2.22;;;1.50;;
79149;SDS011;68563;45.644;13.782;2023-04-28T08:03:46;2.35;;;1.35;;
79149;SDS011;68563;45.644;13.782;2023-04-28T08:06:12;5.25;;;1.80;;
79149;SDS011;68563;45.644;13.782;2023-04-28T08:08:37;2.30;;;1.40;;
79149;SDS011;68563;45.644;13.782;2023-04-28T08:11:03;3.15;;;1.25;;
79149;SDS011;68563;45.644;13.782;2023-04-28T08:13:29;2.55;;;1.17;;
79149;SDS011;68563;45.644;13.782;2023-04-28T08:15:54;2.70;;;1.38;;
79149;SDS011;68563;45.644;13.782;2023-04-28T08:18:21;2.05;;;1.20;;
79149;SDS011;68563;45.644;13.782;2023-04-28T08:20:46;1.80;;;1.27;;
79149;SDS011;68563;45.644;13.782;2023-04-28T08:23:12;2.75;;;1.27;;
79149;SDS011;68563;45.644;13.782;2023-04-28T08:25:37;4.30;;;1.10;;
79149;SDS011;68563;45.644;13.782;2023-04-28T08:28:03;3.88;;;1.40;;
79149;SDS011;68563;45.644;13.782;2023-04-28T08:30:30;3.40;;;1.70;;
79149;SDS011;68563;45.644;13.782;2023-04-28T08:32:55;3.25;;;1.60;;
79149;SDS011;68563;45.644;13.782;2023-04-28T08:35:21;2.33;;;1.25;;
79149;SDS011;68563;45.644;13.782;2023-04-28T08:37:46;2.25;;;1.40;;
79149;SDS011;68563;45.644;13.782;2023-04-28T08:40:13;5.60;;;1.52;;
79149;SDS011;68563;45.644;13.782;2023-04-28T08:42:39;2.58;;;1.55;;
79149;SDS011;68563;45.644;13.782;2023-04-28T08:45:05;4.13;;;1.58;;
79149;SDS011;68563;45.644;13.782;2023-04-28T08:47:36;3.80;;;1.40;;
79149;SDS011;68563;45.644;13.782;2023-04-28T08:50:03;5.53;;;1.50;;
79149;SDS011;68563;45.644;13.782;2023-04-28T08:52:30;1.90;;;1.70;;
79149;SDS011;68563;45.644;13.782;2023-04-28T08:54:57;2.40;;;1.95;;
79149;SDS011;68563;45.644;13.782;2023-04-28T08:57:25;2.85;;;1.98;;
79149;SDS011;68563;45.644;13.782;2023-04-28T08:59:52;4.57;;;2.03;;
79149;SDS011;68563;45.644;13.782;2023-04-28T09:02:17;3.88;;;2.20;;
79149;SDS011;68563;45.644;13.782;2023-04-28T09:04:44;2.72;;;1.73;;
79149;SDS011;68563;45.644;13.782;2023-04-28T09:07:11;5.03;;;1.95;;
79149;SDS011;68563;45.644;13.782;2023-04-28T09:09:37;4.68;;;1.67;;
79149;SDS011;68563;45.644;13.782;2023-04-28T09:12:04;3.33;;;2.00;;
79149;SDS011;68563;45.644;13.782;2023-04-28T09:14:33;2.78;;;1.80;;
79149;SDS011;68563;45.644;13.782;2023-04-28T09:17:00;3.55;;;1.20;;
79149;SDS011;68563;45.644;13.782;2023-04-28T09:19:36;2.33;;;1.20;;
79149;SDS011;68563;45.644;13.782;2023-04-28T09:22:02;3.25;;;1.58;;
79149;SDS011;68563;45.644;13.782;2023-04-28T09:24:30;2.03;;;1.40;;
79149;SDS011;68563;45.644;13.782;2023-04-28T09:27:00;2.17;;;1.50;;
79149;SDS011;68563;45.644;13.782;2023-04-28T09:29:26;1.95;;;1.10;;
79149;SDS011;68563;45.644;13.782;2023-04-28T09:31:52;2.22;;;1.40;;
79149;SDS011;68563;45.644;13.782;2023-04-28T09:34:18;2.85;;;1.58;;
79149;SDS011;68563;45.644;13.782;2023-04-28T09:36:44;1.75;;;1.23;;
79149;SDS011;68563;45.644;13.782;2023-04-28T09:39:10;2.63;;;1.40;;
79149;SDS011;68563;45.644;13.782;2023-04-28T09:44:12;6.30;;;1.63;;
79149;SDS011;68563;45.644;13.782;2023-04-28T09:46:43;2.97;;;1.33;;
79149;SDS011;68563;45.644;13.782;2023-04-28T09:49:09;2.42;;;1.45;;
79149;SDS011;68563;45.644;13.782;2023-04-28T09:51:35;6.45;;;1.60;;
79149;SDS011;68563;45.644;13.782;2023-04-28T09:54:01;3.03;;;1.65;;
79149;SDS011;68563;45.644;13.782;2023-04-28T09:56:28;2.45;;;1.10;;
79149;SDS011;68563;45.644;13.782;2023-04-28T09:58:55;1.95;;;1.40;;
79149;SDS011;68563;45.644;13.782;2023-04-28T10:01:39;1.63;;;1.30;;
79149;SDS011;68563;45.644;13.782;2023-04-28T10:04:05;3.75;;;2.30;;
79149;SDS011;68563;45.644;13.782;2023-04-28T10:06:33;5.47;;;2.40;;
79149;SDS011;68563;45.644;13.782;2023-04-28T10:09:02;2.75;;;1.50;;
79149;SDS011;68563;45.644;13.782;2023-04-28T10:11:29;4.40;;;1.50;;
79149;SDS011;68563;45.644;13.782;2023-04-28T10:13:57;2.03;;;1.50;;
79149;SDS011;68563;45.644;13.782;2023-04-28T10:16:23;2.45;;;1.20;;
79149;SDS011;68563;45.644;13.782;2023-04-28T10:18:49;1.92;;;0.95;;
79149;SDS011;68563;45.644;13.782;2023-04-28T10:21:16;3.38;;;1.00;;
79149;SDS011;68563;45.644;13.782;2023-04-28T10:23:46;2.35;;;1.40;;
79149;SDS011;68563;45.644;13.782;2023-04-28T10:26:15;2.28;;;1.40;;
79149;SDS011;68563;45.644;13.782;2023-04-28T10:28:46;9.77;;;1.27;;
79149;SDS011;68563;45.644;13.782;2023-04-28T10:31:19;5.00;;;1.85;;
79149;SDS011;68563;45.644;13.782;2023-04-28T10:33:47;7.35;;;2.00;;
79149;SDS011;68563;45.644;13.782;2023-04-28T10:39:14;2.47;;;1.77;;
79149;SDS011;68563;45.644;13.782;2023-04-28T10:41:40;3.17;;;1.73;;
79149;SDS011;68563;45.644;13.782;2023-04-28T10:47:03;2.63;;;1.60;;
79149;SDS011;68563;45.644;13.782;2023-04-28T11:00:40;2.28;;;1.95;;
79149;SDS011;68563;45.644;13.782;2023-04-28T11:03:05;2.35;;;1.70;;
79149;SDS011;68563;45.644;13.782;2023-04-28T11:05:31;2.47;;;1.55;;
79149;SDS011;68563;45.644;13.782;2023-04-28T11:13:37;2.63;;;1.80;;
79149;SDS011;68563;45.644;13.782;2023-04-28T11:16:03;3.45;;;1.65;;
79149;SDS011;68563;45.644;13.782;2023-04-28T11:18:31;3.67;;;1.80;;
79149;SDS011;68563;45.644;13.782;2023-04-28T11:23:44;2.47;;;1.92;;
79149;SDS011;68563;45.644;13.782;2023-04-28T11:26:10;3.15;;;1.52;;
79149;SDS011;68563;45.644;13.782;2023-04-28T11:28:35;2.55;;;1.50;;
79149;SDS011;68563;45.644;13.782;2023-04-28T11:31:14;2.58;;;1.45;;
79149;SDS011;68563;45.644;13.782;2023-04-28T11:34:27;3.15;;;1.67;;
79149;SDS011;68563;45.644;13.782;2023-04-28T11:36:38;1.60;;;1.27;;
79149;SDS011;68563;45.644;13.782;2023-04-28T11:39:05;4.00;;;1.80;;
79149;SDS011;68563;45.644;13.782;2023-04-28T11:41:33;2.55;;;1.50;;
79149;SDS011;68563;45.644;13.782;2023-04-28T11:44:00;3.05;;;1.40;;
79149;SDS011;68563;45.644;13.782;2023-04-28T11:46:33;2.53;;;1.30;;
79149;SDS011;68563;45.644;13.782;2023-04-28T11:49:08;1.90;;;1.10;;
79149;SDS011;68563;45.644;13.782;2023-04-28T11:51:34;2.95;;;1.33;;
79149;SDS011;68563;45.644;13.782;2023-04-28T11:54:02;1.65;;;1.42;;
79149;SDS011;68563;45.644;13.782;2023-04-28T11:56:29;3.50;;;1.33;;
79149;SDS011;68563;45.644;13.782;2023-04-28T11:58:59;3.50;;;1.20;;
79149;SDS011;68563;45.644;13.782;2023-04-28T12:03:51;3.38;;;1.48;;
79149;SDS011;68563;45.644;13.782;2023-04-28T12:06:16;1.95;;;1.27;;
79149;SDS011;68563;45.644;13.782;2023-04-28T12:08:45;3.25;;;1.35;;
79149;SDS011;68563;45.644;13.782;2023-04-28T12:11:11;3.00;;;1.70;;
79149;SDS011;68563;45.644;13.782;2023-04-28T12:13:38;3.83;;;1.73;;
79149;SDS011;68563;45.644;13.782;2023-04-28T12:16:07;1.75;;;1.30;;
79149;SDS011;68563;45.644;13.782;2023-04-28T12:18:33;2.13;;;1.30;;
79149;SDS011;68563;45.644;13.782;2023-04-28T12:21:00;5.20;;;1.10;;
79149;SDS011;68563;45.644;13.782;2023-04-28T12:23:32;2.30;;;1.20;;
79149;SDS011;68563;45.644;13.782;2023-04-28T12:25:59;3.28;;;1.02;;
79149;SDS011;68563;45.644;13.782;2023-04-28T12:28:35;1.88;;;1.05;;
79149;SDS011;68563;45.644;13.782;2023-04-28T12:31:07;3.30;;;1.02;;
79149;SDS011;68563;45.644;13.782;2023-04-28T12:33:33;2.28;;;1.30;;
79149;SDS011;68563;45.644;13.782;2023-04-28T12:36:01;2.90;;;1.08;;
79149;SDS011;68563;45.644;13.782;2023-04-28T12:38:29;1.55;;;1.05;;
79149;SDS011;68563;45.644;13.782;2023-04-28T12:40:55;1.35;;;1.00;;
79149;SDS011;68563;45.644;13.782;2023-04-28T12:43:21;1.40;;;1.00;;
79149;SDS011;68563;45.644;13.782;2023-04-28T12:45:48;2.92;;;1.30;;
79149;SDS011;68563;45.644;13.782;2023-04-28T12:48:14;1.58;;;1.20;;
79149;SDS011;68563;45.644;13.782;2023-04-28T12:50:40;1.40;;;0.82;;
79149;SDS011;68563;45.644;13.782;2023-04-28T12:53:05;4.30;;;2.13;;
79149;SDS011;68563;45.644;13.782;2023-04-28T12:55:31;2.28;;;1.00;;
79149;SDS011;68563;45.644;13.782;2023-04-28T12:57:56;3.30;;;0.95;;
79149;SDS011;68563;45.644;13.782;2023-04-28T13:00:23;2.22;;;0.90;;
79149;SDS011;68563;45.644;13.782;2023-04-28T13:02:49;1.00;;;0.85;;
79149;SDS011;68563;45.644;13.782;2023-04-28T13:05:15;1.65;;;0.82;;
79149;SDS011;68563;45.644;13.782;2023-04-28T13:07:40;1.90;;;0.95;;
79149;SDS011;68563;45.644;13.782;2023-04-28T13:10:07;0.98;;;0.70;;
79149;SDS011;68563;45.644;13.782;2023-04-28T13:12:33;1.10;;;0.73;;
79149;SDS011;68563;45.644;13.782;2023-04-28T13:15:01;1.08;;;0.70;;
79149;SDS011;68563;45.644;13.782;2023-04-28T13:17:27;1.48;;;0.90;;
79149;SDS011;68563;45.644;13.782;2023-04-28T13:19:53;1.45;;;0.90;;
79149;SDS011;68563;45.644;13.782;2023-04-28T13:22:18;1.25;;;0.70;;
79149;SDS011;68563;45.644;13.782;2023-04-28T13:24:45;2.38;;;0.80;;
79149;SDS011;68563;45.644;13.782;2023-04-28T13:27:11;0.80;;;0.80;;
79149;SDS011;68563;45.644;13.782;2023-04-28T13:29:36;1.67;;;0.70;;
79149;SDS011;68563;45.644;13.782;2023-04-28T13:32:02;1.42;;;0.65;;
79149;SDS011;68563;45.644;13.782;2023-04-28T13:34:27;0.93;;;0.70;;
79149;SDS011;68563;45.644;13.782;2023-04-28T13:36:53;1.98;;;1.15;;
79149;SDS011;68563;45.644;13.782;2023-04-28T13:39:19;1.63;;;0.80;;
79149;SDS011;68563;45.644;13.782;2023-04-28T13:41:46;1.83;;;0.68;;
79149;SDS011;68563;45.644;13.782;2023-04-28T13:44:12;2.22;;;0.82;;
79149;SDS011;68563;45.644;13.782;2023-04-28T13:46:38;1.75;;;0.70;;
79149;SDS011;68563;45.644;13.782;2023-04-28T13:49:03;1.25;;;1.00;;
79149;SDS011;68563;45.644;13.782;2023-04-28T13:51:29;1.33;;;0.68;;
79149;SDS011;68563;45.644;13.782;2023-04-28T13:53:57;4.63;;;0.80;;
79149;SDS011;68563;45.644;13.782;2023-04-28T13:56:22;1.42;;;0.70;;
79149;SDS011;68563;45.644;13.782;2023-04-28T13:58:48;1.17;;;0.73;;
79149;SDS011;68563;45.644;13.782;2023-04-28T14:01:13;1.13;;;0.73;;
79149;SDS011;68563;45.644;13.782;2023-04-28T14:03:39;1.27;;;0.90;;
79149;SDS011;68563;45.644;13.782;2023-04-28T14:06:05;2.35;;;0.90;;
79149;SDS011;68563;45.644;13.782;2023-04-28T14:08:31;0.88;;;0.70;;
79149;SDS011;68563;45.644;13.782;2023-04-28T14:10:57;1.98;;;0.70;;
79149;SDS011;68563;45.644;13.782;2023-04-28T14:13:22;1.17;;;0.68;;
79149;SDS011;68563;45.644;13.782;2023-04-28T14:15:51;0.90;;;0.60;;
79149;SDS011;68563;45.644;13.782;2023-04-28T14:18:19;1.35;;;0.80;;
79149;SDS011;68563;45.644;13.782;2023-04-28T14:20:45;1.13;;;0.68;;
79149;SDS011;68563;45.644;13.782;2023-04-28T14:23:11;2.75;;;0.80;;
79149;SDS011;68563;45.644;13.782;2023-04-28T14:25:36;1.58;;;0.73;;
79149;SDS011;68563;45.644;13.782;2023-04-28T14:28:02;1.10;;;0.90;;
79149;SDS011;68563;45.644;13.782;2023-04-28T14:30:27;1.85;;;0.90;;
79149;SDS011;68563;45.644;13.782;2023-04-28T14:32:53;1.48;;;0.80;;
79149;SDS011;68563;45.644;13.782;2023-04-28T14:35:18;1.83;;;1.20;;
79149;SDS011;68563;45.644;13.782;2023-04-28T14:37:45;1.55;;;1.05;;
79149;SDS011;68563;45.644;13.782;2023-04-28T14:40:11;4.18;;;1.10;;
79149;SDS011;68563;45.644;13.782;2023-04-28T14:42:37;3.28;;;1.00;;
79149;SDS011;68563;45.644;13.782;2023-04-28T14:45:03;2.42;;;0.88;;
79149;SDS011;68563;45.644;13.782;2023-04-28T14:47:30;1.83;;;0.90;;
79149;SDS011;68563;45.644;13.782;2023-04-28T14:49:56;2.08;;;1.02;;
79149;SDS011;68563;45.644;13.782;2023-04-28T14:52:22;2.05;;;0.90;;
79149;SDS011;68563;45.644;13.782;2023-04-28T14:54:49;2.15;;;1.08;;
79149;SDS011;68563;45.644;13.782;2023-04-28T14:57:15;1.67;;;1.00;;